Paramount Helsinki — 2CWB3 — position and weather

sailwx.info

Track history (hours):
 
Tides and Currents Weather Stations Pressure Air Temp Water Temp Dewpoint Dewpoint Depression Visibility Wind Speed Wind Dir Waves Ship Positions

Paramount Helsinki

Last reported at 2015-Feb-24 02:27 UTC. Time now 2015-Mar-02 11:21 UTC.
Position N 35°33' W 031°54'.

Length 250 m; draft 8.5 m.

Type: Ship. MMSI: 235076275.

Date/timePositionNaut miles runAvg speedWind from/ knotsBaromVisibWave heightAir tempDewpointWater temp
2015-Feb-24 02:27N 35°33' W 031°54'10412.8
2015-Feb-23 18:16N 36°27' W 030°03'5011.9
2015-Feb-23 14:06N 36°50' W 029°09'711.8
2015-Feb-23 13:30N 36°54' W 029°01'1211.9
2015-Feb-23 12:29N 36°59' W 028°47'1212.2
2015-Feb-23 11:29N 37°05' W 028°34'1111.8
2015-Feb-23 10:33N 37°10' W 028°22'1211.6
2015-Feb-23 09:33N 37°16' W 028°09'1212.2
2015-Feb-23 08:33N 37°22' W 027°56'1312.9
2015-Feb-23 07:33N 37°28' W 027°41'1212.0
2015-Feb-23 06:34N 37°34' W 027°28'1212.1
2015-Feb-23 05:33N 37°40' W 027°15'1211.8
2015-Feb-23 04:33N 37°46' W 027°02'1211.9
2015-Feb-23 03:33N 37°52' W 026°49'1212.0
2015-Feb-23 02:33N 37°56' W 026°35'1212.1
2015-Feb-23 01:33N 38°01' W 026°21'1212.1
2015-Feb-23 00:33N 38°06' W 026°07'1212.2
2015-Feb-22 23:33N 38°11' W 025°52'1212.2
2015-Feb-22 22:33N 38°16' W 025°38'1212.0
2015-Feb-22 21:34N 38°21' W 025°25'1212.1
2015-Feb-22 20:34N 38°26' W 025°10'1211.9
2015-Feb-22 19:33N 38°31' W 024°57'1211.7
2015-Feb-22 18:33N 38°36' W 024°43'1212.0
2015-Feb-22 17:33N 38°41' W 024°29'1211.8
2015-Feb-22 16:32N 38°46' W 024°15'1211.9
2015-Feb-22 15:32N 38°51' W 024°01'1311.7
2015-Feb-22 14:26N 38°56' W 023°46'1011.8
2015-Feb-22 13:33N 39°00' W 023°34'2411.8
2015-Feb-22 11:32N 39°10' W 023°06'1711.8
2015-Feb-22 10:04N 39°17' W 022°45'4311.9
2015-Feb-22 06:27N 39°35' W 021°55'1111.5
2015-Feb-22 05:30N 39°40' W 021°42'1111.6
2015-Feb-22 04:34N 39°44' W 021°29'9411.7
2015-Feb-21 20:31N 40°23' W 019°37'1311.8
2015-Feb-21 19:23N 40°29' W 019°21'  
2015-Feb-18 09:10N 43°21' W 008°23'502 9.8
2015-Feb-16 06:10N 50°16' W 001°29'15 9.4
2015-Feb-16 04:32N 50°19' W 001°06'1110.5
2015-Feb-16 03:32N 50°22' W 000°50'1212.0
2015-Feb-16 02:33N 50°26' W 000°32'1413.0
2015-Feb-16 01:31N 50°29' W 000°12'1313.5
2015-Feb-16 00:33N 50°33' E 000°08'1313.5
2015-Feb-15 23:33N 50°37' E 000°28'1312.7
2015-Feb-15 22:33N 50°43' E 000°45'1211.7
2015-Feb-15 21:33N 50°50' E 001°01'1111.1
2015-Feb-15 20:33N 50°57' E 001°14'1110.7
2015-Feb-15 19:33N 51°04' E 001°27'1212.0
2015-Feb-15 18:33N 51°11' E 001°42'1413.5
2015-Feb-15 17:34N 51°23' E 001°52'1414.0
2015-Feb-15 16:34N 51°34' E 002°06'1414.0
2015-Feb-15 15:33N 51°45' E 002°21'1712.6
2015-Feb-15 14:14N 51°59' E 002°36'3111.6
2015-Feb-15 11:32N 52°30' E 002°36'1111.0
2015-Feb-15 10:29N 52°41' E 002°38'1111.4
2015-Feb-15 09:33N 52°52' E 002°38'1511.9
2015-Feb-15 08:20N 53°07' E 002°38'1312.9
2015-Feb-15 07:20N 53°19' E 002°46'1313.1
2015-Feb-15 06:19N 53°31' E 002°54'7612.2
2015-Feb-15 00:06N 54°12' E 001°06'1012.8
2015-Feb-14 23:20N 54°16' E 000°51'1012.7
2015-Feb-14 22:34N 54°20' E 000°35'1312.5
2015-Feb-14 21:34N 54°25' E 000°16'1212.4
2015-Feb-14 20:33N 54°31' W 000°04'1212.3
2015-Feb-14 19:34N 54°36' W 000°23'1212.0
2015-Feb-14 18:33N 54°40' W 000°43'1211.6
2015-Feb-14 17:32N 54°42' W 001°03'6 4.3
2015-Feb-14 16:08N 54°37' W 001°10'0 0.0
2015-Feb-14 15:22N 54°37' W 001°10'0 0.0
2015-Feb-14 14:08N 54°37' W 001°10'0 0.0
2015-Feb-14 13:31N 54°37' W 001°10'0 0.0
2015-Feb-14 11:31N 54°37' W 001°10'0 0.0
2015-Feb-14 10:30N 54°37' W 001°10'0 0.0
2015-Feb-14 09:31N 54°37' W 001°10'0 0.0
2015-Feb-14 08:30N 54°37' W 001°10'  
Track history (hours):
 
Tides and Currents Weather Stations Pressure Air Temp Water Temp Dewpoint Dewpoint Depression Visibility Wind Speed Wind Dir Waves Ship Positions

Paramount Helsinki

Last reported at 2015-Feb-24 02:27 UTC. Time now 2015-Mar-02 11:21 UTC.
Position N 35°33' W 031°54'.

Length 250 m; draft 8.5 m.

Type: Ship. MMSI: 235076275.

Date/timePositionNaut miles runAvg speedWind from/ knotsBaromVisibWave heightAir tempDewpointWater temp
2015-Feb-24 02:27N 35°33' W 031°54'10412.8
2015-Feb-23 18:16N 36°27' W 030°03'5011.9
2015-Feb-23 14:06N 36°50' W 029°09'711.8
2015-Feb-23 13:30N 36°54' W 029°01'1211.9
2015-Feb-23 12:29N 36°59' W 028°47'1212.2
2015-Feb-23 11:29N 37°05' W 028°34'1111.8
2015-Feb-23 10:33N 37°10' W 028°22'1211.6
2015-Feb-23 09:33N 37°16' W 028°09'1212.2
2015-Feb-23 08:33N 37°22' W 027°56'1312.9
2015-Feb-23 07:33N 37°28' W 027°41'1212.0
2015-Feb-23 06:34N 37°34' W 027°28'1212.1
2015-Feb-23 05:33N 37°40' W 027°15'1211.8
2015-Feb-23 04:33N 37°46' W 027°02'1211.9
2015-Feb-23 03:33N 37°52' W 026°49'1212.0
2015-Feb-23 02:33N 37°56' W 026°35'1212.1
2015-Feb-23 01:33N 38°01' W 026°21'1212.1
2015-Feb-23 00:33N 38°06' W 026°07'1212.2
2015-Feb-22 23:33N 38°11' W 025°52'1212.2
2015-Feb-22 22:33N 38°16' W 025°38'1212.0
2015-Feb-22 21:34N 38°21' W 025°25'1212.1
2015-Feb-22 20:34N 38°26' W 025°10'1211.9
2015-Feb-22 19:33N 38°31' W 024°57'1211.7
2015-Feb-22 18:33N 38°36' W 024°43'1212.0
2015-Feb-22 17:33N 38°41' W 024°29'1211.8
2015-Feb-22 16:32N 38°46' W 024°15'1211.9
2015-Feb-22 15:32N 38°51' W 024°01'1311.7
2015-Feb-22 14:26N 38°56' W 023°46'1011.8
2015-Feb-22 13:33N 39°00' W 023°34'2411.8
2015-Feb-22 11:32N 39°10' W 023°06'1711.8
2015-Feb-22 10:04N 39°17' W 022°45'4311.9
2015-Feb-22 06:27N 39°35' W 021°55'1111.5
2015-Feb-22 05:30N 39°40' W 021°42'1111.6
2015-Feb-22 04:34N 39°44' W 021°29'9411.7
2015-Feb-21 20:31N 40°23' W 019°37'1311.8
2015-Feb-21 19:23N 40°29' W 019°21'  
2015-Feb-18 09:10N 43°21' W 008°23'502 9.8
2015-Feb-16 06:10N 50°16' W 001°29'15 9.4
2015-Feb-16 04:32N 50°19' W 001°06'1110.5
2015-Feb-16 03:32N 50°22' W 000°50'1212.0
2015-Feb-16 02:33N 50°26' W 000°32'1413.0
2015-Feb-16 01:31N 50°29' W 000°12'1313.5
2015-Feb-16 00:33N 50°33' E 000°08'1313.5
2015-Feb-15 23:33N 50°37' E 000°28'1312.7
2015-Feb-15 22:33N 50°43' E 000°45'1211.7
2015-Feb-15 21:33N 50°50' E 001°01'1111.1
2015-Feb-15 20:33N 50°57' E 001°14'1110.7
2015-Feb-15 19:33N 51°04' E 001°27'1212.0
2015-Feb-15 18:33N 51°11' E 001°42'1413.5
2015-Feb-15 17:34N 51°23' E 001°52'1414.0
2015-Feb-15 16:34N 51°34' E 002°06'1414.0
2015-Feb-15 15:33N 51°45' E 002°21'1712.6
2015-Feb-15 14:14N 51°59' E 002°36'3111.6
2015-Feb-15 11:32N 52°30' E 002°36'1111.0
2015-Feb-15 10:29N 52°41' E 002°38'1111.4
2015-Feb-15 09:33N 52°52' E 002°38'1511.9
2015-Feb-15 08:20N 53°07' E 002°38'1312.9
2015-Feb-15 07:20N 53°19' E 002°46'1313.1
2015-Feb-15 06:19N 53°31' E 002°54'7612.2
2015-Feb-15 00:06N 54°12' E 001°06'1012.8
2015-Feb-14 23:20N 54°16' E 000°51'1012.7
2015-Feb-14 22:34N 54°20' E 000°35'1312.5
2015-Feb-14 21:34N 54°25' E 000°16'1212.4
2015-Feb-14 20:33N 54°31' W 000°04'1212.3
2015-Feb-14 19:34N 54°36' W 000°23'1212.0
2015-Feb-14 18:33N 54°40' W 000°43'1211.6
2015-Feb-14 17:32N 54°42' W 001°03'6 4.3
2015-Feb-14 16:08N 54°37' W 001°10'0 0.0
2015-Feb-14 15:22N 54°37' W 001°10'0 0.0
2015-Feb-14 14:08N 54°37' W 001°10'0 0.0
2015-Feb-14 13:31N 54°37' W 001°10'0 0.0
2015-Feb-14 11:31N 54°37' W 001°10'0 0.0
2015-Feb-14 10:30N 54°37' W 001°10'0 0.0
2015-Feb-14 09:31N 54°37' W 001°10'0 0.0
2015-Feb-14 08:30N 54°37' W 001°10'  

Dump ship's entire track history